LTBA Airport Information

Runway Information
Runway 05 Length 8530 ft width 197 ft
Elevation 93 ft Threshold 492 ft Heading 59
Runway 23 Length 8530 ft Width 197 ft
Elevation 90 ft Threshold 0 ft Heading 239
Runway 17L Length 9843 ft width 148 ft
Elevation 157 ft Threshold 0 ft Heading 178
Runway 35R Length 9843 ft Width 148 ft
Elevation 100 ft Threshold 0 ft Heading 358
Runway 17R Length 9843 ft width 148 ft
Elevation 163 ft Threshold 0 ft Heading 178
Runway 35L Length 9843 ft Width 148 ft
Elevation 102 ft Threshold 0 ft Heading 358
Airport Frequencies
Type APP Name YESILKOY A Frequency 120.5 MHZ
Type ATIS Name ATIS Frequency 128.2 MHZ
Type CLD Name YESILKOY D Frequency 121.7 MHZ
Type GND Name YESILKOY G Frequency 121.8 MHZ
Type RMP Name YESILKOY R Frequency 121.9 MHZ
Type TWR Name YESILKOY T Frequency 118.1 MHZ
Airport Navaids
Type VORTAC Name Istanbul Frequency 112500 KHZ
Airport Weather Information & NOTAM
ADDS - METARS form results

(1907 UTC 25 June 2018)
 
METAR text: LTBA 251850Z 03010KT 360V070 8000 -SHRA BKN027 23/19 Q1014 NOSIG RMK RWY17L 03012KT RWY05 03012KT RWY23 05009KT 020V110
Conditions at: LTBA (ISTANBUL/ATATURK, TR) observed 1850 UTC 25 June 2018
Temperature: 23.0°C (73°F)
Dewpoint: 19.0°C (66°F) [RH = 78%]
Pressure (altimeter): 29.94 inches Hg (1014.0 mb)
Winds: from the NNE (30 degrees) at 12 MPH (10 knots; 5.2 m/s)
Visibility: 5 miles (8 km)
Ceiling: 2700 feet AGL
Clouds: broken clouds at 2700 feet AGL
Weather: -SHRA  (light rain showers)

METAR text: LTBA 251820Z 02011KT 360V130 9999 FEW020 BKN030 23/18 Q1014 NOSIG RMK RWY17L 03009KT 360V060 RWY05 01011KT RWY23 04012KT
Conditions at: LTBA (ISTANBUL/ATATURK, TR) observed 1820 UTC 25 June 2018
Temperature: 23.0°C (73°F)
Dewpoint: 18.0°C (64°F) [RH = 73%]
Pressure (altimeter): 29.94 inches Hg (1014.0 mb)
Winds: from the NNE (20 degrees) at 13 MPH (11 knots; 5.7 m/s)
Visibility: 6 or more miles (10+ km)
Ceiling: 3000 feet AGL
Clouds: few clouds at 2000 feet AGL
broken clouds at 3000 feet AGL
Weather: no significant weather observed at this time